Time;durP1;ratioP1;P1;durP2;ratioP2;P2;SDS_P1;SDS_P2;PMS_P1;PMS_P2;Temp;Humidity;BMP_temperature;BMP_pressure;BME280_temperature;BME280_humidity;BME280_pressure;Samples;Min_cycle;Max_cycle;Signal;HPM_P1;HPM_P2
2022/07/15 00:01:46;;;;;;;7.35;3.70;;;;;;;26.12;50.37;98571.06;5092812;28;20567;-77
2022/07/15 00:04:12;;;;;;;7.50;3.42;;;;;;;26.07;50.48;98565.50;5041464;28;20040;-77
2022/07/15 00:06:38;;;;;;;7.38;3.30;;;;;;;25.96;50.62;98567.19;5092637;28;20040;-79
2022/07/15 00:09:04;;;;;;;8.05;3.40;;;;;;;25.94;50.55;98568.50;5092612;28;20406;-76
2022/07/15 00:11:30;;;;;;;18.58;3.67;;;;;;;25.89;51.17;98552.78;5092396;28;20043;-77
2022/07/15 00:13:55;;;;;;;5.20;3.55;;;;;;;25.89;51.34;98545.41;5075028;28;20048;-77
2022/07/15 00:16:21;;;;;;;8.77;3.28;;;;;;;25.86;51.14;98545.88;5092904;28;20040;-77
2022/07/15 00:18:47;;;;;;;7.72;3.20;;;;;;;25.90;51.23;98532.53;5041106;28;20131;-76
2022/07/15 00:21:13;;;;;;;5.53;3.40;;;;;;;25.88;51.00;98521.84;5057606;28;20078;-77
2022/07/15 00:23:38;;;;;;;8.18;3.42;;;;;;;25.98;50.59;98531.34;5075483;28;20040;-76
2022/07/15 00:26:04;;;;;;;11.48;3.40;;;;;;;25.96;50.74;98530.75;5061783;28;20127;-77
2022/07/15 00:28:30;;;;;;;4.78;3.00;;;;;;;25.98;50.80;98523.13;5077961;28;20051;-76
2022/07/15 00:30:56;;;;;;;5.40;3.10;;;;;;;25.98;50.67;98525.84;5061185;28;20097;-77
2022/07/15 00:33:22;;;;;;;5.03;3.17;;;;;;;25.99;50.68;98533.00;5061250;28;20040;-78
2022/07/15 00:35:48;;;;;;;8.98;3.47;;;;;;;25.98;50.34;98503.94;5044524;28;20422;-77
2022/07/15 00:38:14;;;;;;;6.13;3.40;;;;;;;25.98;50.67;98512.16;5077346;28;20517;-76
2022/07/15 00:40:42;;;;;;;8.05;3.70;;;;;;;25.91;50.52;98483.03;5077764;28;20044;-78
2022/07/15 00:43:08;;;;;;;8.77;3.67;;;;;;;25.96;50.30;98506.13;5061159;28;20032;-76
2022/07/15 00:45:34;;;;;;;6.55;3.67;;;;;;;25.91;50.44;98463.00;5077728;28;20040;-77
2022/07/15 00:48:00;;;;;;;12.15;3.42;;;;;;;26.00;50.39;98449.78;5060926;28;20055;-76
2022/07/15 00:50:29;;;;;;;5.03;3.05;;;;;;;25.98;50.40;98432.75;5077463;28;20047;-77
2022/07/15 00:53:10;;;;;;;3.85;3.33;;;;;;;25.92;50.75;98423.63;5044153;28;20042;-77
2022/07/15 00:55:44;;;;;;;6.55;3.28;;;;;;;25.82;50.72;98423.41;5079641;28;20072;-76
2022/07/15 00:58:19;;;;;;;14.90;3.25;;;;;;;25.82;50.90;98429.72;5060611;28;20054;-76
2022/07/15 01:00:47;;;;;;;4.22;3.55;;;;;;;25.87;50.40;98435.28;5060762;28;20044;-77
2022/07/15 01:03:16;;;;;;;8.65;3.83;;;;;;;25.84;50.33;98415.78;5077010;28;20513;-76
2022/07/15 01:05:42;;;;;;;5.88;3.25;;;;;;;25.96;49.96;98440.41;5060568;28;20048;-76
2022/07/15 01:08:08;;;;;;;4.13;3.30;;;;;;;26.02;49.77;98444.88;5077658;28;20497;-76
2022/07/15 01:10:35;;;;;;;9.25;3.20;;;;;;;26.03;49.97;98441.09;5095263;28;20047;-77
2022/07/15 01:13:02;;;;;;;9.00;3.63;;;;;;;26.05;49.53;98449.88;5060413;28;20422;-76
2022/07/15 01:15:31;;;;;;;7.80;3.20;;;;;;;26.12;49.63;98431.38;5060316;28;20040;-76
2022/07/15 01:17:58;;;;;;;7.70;3.50;;;;;;;26.14;49.23;98438.28;5043651;28;20091;-77
2022/07/15 01:20:24;;;;;;;13.50;3.33;;;;;;;26.17;49.14;98435.03;5060291;28;20204;-77
2022/07/15 01:22:56;;;;;;;8.00;3.30;;;;;;;26.19;49.08;98421.13;5060345;28;20097;-77
2022/07/15 01:25:27;;;;;;;6.63;3.20;;;;;;;26.27;49.08;98426.19;5044455;28;20047;-77
2022/07/15 01:27:53;;;;;;;9.73;3.60;;;;;;;26.26;48.96;98399.88;5060247;28;20071;-77
2022/07/15 01:30:23;;;;;;;8.65;3.60;;;;;;;26.40;48.92;98387.53;5076658;28;20490;-76
2022/07/15 01:32:50;;;;;;;8.48;3.85;;;;;;;26.46;48.89;98379.41;5060525;28;20053;-76
2022/07/15 01:35:17;;;;;;;8.85;4.07;;;;;;;26.50;48.60;98375.09;5075779;28;20040;-78
2022/07/15 01:37:46;;;;;;;8.15;3.53;;;;;;;26.59;48.53;98370.84;5059446;28;20113;-77
2022/07/15 01:40:12;;;;;;;9.20;3.60;;;;;;;26.69;47.95;98381.13;5059821;28;20044;-78
2022/07/15 01:42:39;;;;;;;6.93;3.13;;;;;;;26.76;47.92;98388.09;5043231;28;20047;-77
2022/07/15 01:45:08;;;;;;;5.57;3.65;;;;;;;26.80;47.32;98364.59;5043261;28;20044;-77
2022/07/15 01:47:45;;;;;;;9.27;3.22;;;;;;;26.91;47.27;98370.22;5076012;28;20134;-77
2022/07/15 01:50:15;;;;;;;6.72;3.25;;;;;;;26.97;46.86;98358.22;5076376;28;20097;-79
2022/07/15 01:52:53;;;;;;;7.65;3.33;;;;;;;26.98;46.58;98359.91;5061385;28;20043;-78
2022/07/15 01:55:20;;;;;;;11.40;3.47;;;;;;;26.99;45.98;98361.56;5059972;28;20138;-77
2022/07/15 01:57:46;;;;;;;9.48;3.47;;;;;;;27.04;45.47;98362.47;5076356;28;20040;-78
2022/07/15 02:00:16;;;;;;;8.45;3.25;;;;;;;26.98;45.05;98357.16;5059298;28;20498;-77
2022/07/15 02:02:46;;;;;;;7.43;3.30;;;;;;;27.28;44.75;98387.78;5076330;28;20075;-76
2022/07/15 02:05:14;;;;;;;;;;;;;;;27.40;44.63;98390.41;5076340;28;20044;-76
2022/07/15 02:07:40;;;;;;;4.88;3.25;;;;;;;27.48;44.26;98392.69;5058956;28;20431;-76
2022/07/15 02:10:09;;;;;;;8.10;3.05;;;;;;;27.61;43.06;98386.00;5059528;28;20399;-76
2022/07/15 02:12:36;;;;;;;9.52;3.03;;;;;;;27.59;42.87;98367.03;5061296;28;20044;-77
2022/07/15 02:15:03;;;;;;;9.50;3.55;;;;;;;27.72;42.13;98364.97;5059762;28;20043;-77
2022/07/15 02:17:39;;;;;;;4.22;3.30;;;;;;;27.81;41.47;98374.44;5058933;28;20044;-77
2022/07/15 02:20:05;;;;;;;6.03;4.35;;;;;;;27.81;41.24;98368.94;5075570;28;20082;-78
2022/07/15 02:22:31;;;;;;;7.35;3.17;;;;;;;27.94;41.04;98390.50;5075794;28;20040;-77
2022/07/15 02:24:58;;;;;;;7.53;3.13;;;;;;;27.96;40.64;98393.84;5093674;28;20068;-78
2022/07/15 02:27:23;;;;;;;7.68;3.03;;;;;;;28.04;40.59;98389.78;5059085;28;20481;-76
2022/07/15 02:29:51;;;;;;;9.15;3.45;;;;;;;28.07;40.48;98398.34;5075226;28;20521;-77
2022/07/15 02:32:19;;;;;;;13.60;3.47;;;;;;;28.12;40.42;98463.50;5075120;28;20104;-78
2022/07/15 02:34:46;;;;;;;13.52;3.47;;;;;;;27.86;41.14;98495.34;5093414;28;20115;-77
2022/07/15 02:37:12;;;;;;;11.45;3.28;;;;;;;27.72;42.12;98474.78;5041965;28;20047;-78
2022/07/15 02:39:38;;;;;;;11.90;4.03;;;;;;;27.62;42.78;98486.50;5041759;28;20040;-76
2022/07/15 02:42:04;;;;;;;11.95;4.00;;;;;;;27.71;42.66;98493.19;5058418;28;20036;-77
2022/07/15 02:44:30;;;;;;;4.78;3.35;;;;;;;27.80;42.97;98483.47;5075347;28;20513;-78
2022/07/15 02:46:58;;;;;;;8.50;3.60;;;;;;;27.60;42.68;98483.97;5042296;28;20039;-77
2022/07/15 02:49:28;;;;;;;12.25;3.78;;;;;;;27.62;42.95;98489.22;5075419;28;20036;-79
2022/07/15 02:51:54;;;;;;;12.68;3.72;;;;;;;27.67;44.54;98522.25;5075208;28;20055;-81
2022/07/15 02:54:22;;;;;;;4.72;3.10;;;;;;;27.80;44.24;98532.91;5059306;28;20052;-78
2022/07/15 02:56:48;;;;;;;15.27;3.72;;;;;;;27.81;43.21;98540.03;5075026;28;20042;-81
2022/07/15 02:59:14;;;;;;;6.53;3.72;;;;;;;28.00;43.54;98537.00;5057581;28;20043;-78
2022/07/15 03:01:42;;;;;;;8.27;3.80;;;;;;;28.15;43.25;98541.84;5063963;28;20388;-79
2022/07/15 03:04:08;;;;;;;13.15;3.20;;;;;;;28.33;42.80;98547.84;5054564;28;20324;-81
2022/07/15 03:06:34;;;;;;;12.95;3.30;;;;;;;28.53;42.82;98554.69;5038135;28;20040;-79
2022/07/15 03:09:00;;;;;;;9.00;3.53;;;;;;;28.69;42.14;98556.47;5021915;28;20041;-78
2022/07/15 03:11:27;;;;;;;11.55;3.45;;;;;;;28.78;41.74;98546.69;5055175;28;20071;-80
2022/07/15 03:13:53;;;;;;;4.45;3.40;;;;;;;28.88;41.61;98580.88;5038866;28;20040;-79
2022/07/15 03:16:19;;;;;;;8.38;3.53;;;;;;;28.87;41.56;98579.22;5056294;28;20486;-79
2022/07/15 03:18:48;;;;;;;9.65;3.13;;;;;;;28.93;41.26;98587.25;5038919;28;20044;-80
2022/07/15 03:21:15;;;;;;;11.00;3.10;;;;;;;28.96;41.06;98585.91;5038484;28;20412;-78
2022/07/15 03:23:41;;;;;;;4.85;3.03;;;;;;;28.59;41.23;98594.06;5038591;28;20067;-80
2022/07/15 03:26:07;;;;;;;8.68;3.20;;;;;;;28.16;42.55;98588.28;5054956;28;20047;-79
2022/07/15 03:28:33;;;;;;;4.95;3.15;;;;;;;28.15;43.28;98583.88;5072608;28;20052;-78
2022/07/15 03:30:59;;;;;;;5.22;3.53;;;;;;;28.09;43.66;98584.91;5054477;28;20173;-79
2022/07/15 03:33:25;;;;;;;10.35;3.40;;;;;;;27.90;44.01;98591.78;5037963;28;20040;-79
2022/07/15 03:35:52;;;;;;;8.40;3.47;;;;;;;27.64;44.51;98594.13;5054539;28;20403;-81
2022/07/15 03:38:21;;;;;;;7.68;3.17;;;;;;;27.25;45.61;98594.06;5037903;28;20593;-81
2022/07/15 03:40:47;;;;;;;10.05;3.80;;;;;;;26.93;46.90;98592.94;5038224;28;20049;-83
2022/07/15 03:43:13;;;;;;;8.35;3.42;;;;;;;26.77;47.68;98594.56;5054789;28;20040;-85
2022/07/15 03:45:40;;;;;;;10.40;3.20;;;;;;;26.81;47.72;98588.34;5055287;28;20051;-85
2022/07/15 03:48:06;;;;;;;8.88;3.80;;;;;;;26.97;47.31;98577.63;5054868;28;20089;-80
2022/07/15 03:50:35;;;;;;;;;;;;;;;26.76;47.91;98577.28;5054906;28;20040;-82
2022/07/15 03:53:01;;;;;;;14.20;4.28;;;;;;;26.66;48.16;98562.56;5054533;28;19916;-81
2022/07/15 03:55:27;;;;;;;7.50;3.42;;;;;;;26.93;47.86;98546.31;5054665;28;20040;-82
2022/07/15 03:57:55;;;;;;;13.98;3.88;;;;;;;27.02;47.33;98542.91;5072427;28;20040;-83
2022/07/15 04:00:21;;;;;;;11.55;3.85;;;;;;;26.85;47.48;98504.53;5057821;28;20046;-82
2022/07/15 04:02:47;;;;;;;9.57;3.45;;;;;;;26.49;48.50;98463.88;5076556;28;20048;-84
2022/07/15 04:05:13;;;;;;;11.23;3.58;;;;;;;26.46;48.90;98458.88;5085821;28;20391;-78
2022/07/15 04:07:39;;;;;;;10.25;3.90;;;;;;;26.62;48.28;98436.13;5026162;28;20050;-79
2022/07/15 04:10:05;;;;;;;16.35;3.58;;;;;;;26.78;48.03;98451.75;5041627;28;20037;-79
2022/07/15 04:12:31;;;;;;;13.05;3.85;;;;;;;26.86;48.18;98473.28;5058148;28;20127;-81
2022/07/15 04:14:57;;;;;;;15.23;3.50;;;;;;;26.87;47.82;98485.91;5058699;28;20463;-88
2022/07/15 04:17:23;;;;;;;6.18;3.25;;;;;;;26.98;47.65;98475.94;5042166;28;20519;-84
2022/07/15 04:19:49;;;;;;;13.75;4.13;;;;;;;27.09;47.35;98479.66;5058510;28;20040;-87
2022/07/15 04:22:16;;;;;;;17.52;3.42;;;;;;;27.20;47.22;98467.78;5042277;28;20103;-87
2022/07/15 04:24:48;;;;;;;11.98;3.53;;;;;;;27.44;47.03;98484.03;5041882;28;20181;-84
2022/07/15 04:27:16;;;;;;;9.13;3.60;;;;;;;27.55;46.82;98485.84;5057925;28;20052;-83
2022/07/15 04:29:43;;;;;;;9.80;3.72;;;;;;;27.73;46.30;98474.56;5057935;28;20049;-83
2022/07/15 04:32:11;;;;;;;12.17;3.50;;;;;;;27.87;45.78;98464.06;5041572;28;20044;-81
2022/07/15 04:34:40;;;;;;;13.65;3.75;;;;;;;27.82;46.03;98458.47;5057649;28;20048;-81
2022/07/15 04:37:06;;;;;;;14.15;4.00;;;;;;;27.94;46.36;98455.59;5067578;28;20139;-81
2022/07/15 04:39:33;;;;;;;11.50;4.25;;;;;;;28.08;45.83;98445.88;5085644;28;20051;-80
2022/07/15 04:41:58;;;;;;;15.25;3.75;;;;;;;28.25;45.74;98446.63;5064073;28;20040;-79
2022/07/15 04:44:27;;;;;;;;;;;;;;;28.48;45.25;98434.50;5084071;28;20441;-82
2022/07/15 04:46:55;;;;;;;8.73;3.45;;;;;;;28.61;45.20;98437.88;5084327;28;20077;-83
2022/07/15 04:52:16;;;;;;;9.20;4.05;;;;;;;29.01;44.14;98430.00;5066623;28;20123;-82
2022/07/15 04:54:45;;;;;;;8.73;3.75;;;;;;;29.16;43.69;98418.25;5079006;28;20075;-81
2022/07/15 04:57:13;;;;;;;10.07;3.30;;;;;;;29.24;43.46;98398.47;5062296;28;20478;-81
2022/07/15 04:59:40;;;;;;;12.82;3.72;;;;;;;29.14;43.06;98386.56;5057210;28;20040;-83
2022/07/15 05:02:10;;;;;;;10.38;3.50;;;;;;;29.11;43.20;98385.22;5041583;28;20044;-81
2022/07/15 05:04:39;;;;;;;11.23;3.75;;;;;;;29.22;43.11;98384.13;5041049;28;20122;-81
2022/07/15 05:07:07;;;;;;;14.95;4.10;;;;;;;29.20;42.88;98358.00;5044234;28;20036;-81
2022/07/15 05:09:35;;;;;;;15.43;3.90;;;;;;;29.32;42.51;98366.03;5055343;28;20048;-82
2022/07/15 05:12:01;;;;;;;10.95;4.13;;;;;;;29.31;42.41;98361.63;5039926;28;20198;-81
2022/07/15 05:14:27;;;;;;;9.52;3.78;;;;;;;29.43;41.99;98362.22;5057038;28;20048;-82
2022/07/15 05:16:53;;;;;;;14.98;3.53;;;;;;;29.42;42.04;98355.06;5057039;28;20040;-80
2022/07/15 05:19:19;;;;;;;11.48;3.90;;;;;;;29.47;41.91;98361.41;5040484;28;20407;-81
2022/07/15 05:21:46;;;;;;;14.88;4.50;;;;;;;29.37;41.99;98360.53;5040761;28;20044;-81
2022/07/15 05:24:12;;;;;;;10.57;3.67;;;;;;;29.39;41.69;98361.13;5057444;28;20556;-82
2022/07/15 05:26:37;;;;;;;9.57;4.35;;;;;;;29.56;41.85;98369.97;5040563;28;20048;-82
2022/07/15 05:29:04;;;;;;;15.75;3.78;;;;;;;29.72;41.43;98371.72;5040507;28;20048;-82
2022/07/15 05:31:30;;;;;;;9.82;3.83;;;;;;;29.85;41.04;98375.88;5040332;28;20047;-80
2022/07/15 05:33:58;;;;;;;13.65;4.25;;;;;;;29.91;41.25;98385.81;5040855;28;20055;-79
2022/07/15 05:36:25;;;;;;;8.02;3.50;;;;;;;30.00;40.98;98372.34;5074951;28;20052;-79
2022/07/15 05:38:52;;;;;;;10.13;3.83;;;;;;;30.17;40.89;98372.13;5060910;28;20056;-81
2022/07/15 05:41:19;;;;;;;13.48;3.75;;;;;;;30.09;40.94;98365.19;5074159;28;20054;-79
2022/07/15 05:43:45;;;;;;;14.60;4.45;;;;;;;30.12;40.80;98385.84;5056389;28;20040;-79
2022/07/15 05:46:12;;;;;;;14.45;4.25;;;;;;;30.17;40.58;98381.22;5039620;28;20499;-79
2022/07/15 05:48:47;;;;;;;14.90;3.70;;;;;;;30.17;39.71;98375.72;5056856;28;20051;-81
2022/07/15 05:51:14;;;;;;;17.27;3.72;;;;;;;30.23;39.68;98373.78;5073883;28;20487;-81
2022/07/15 05:53:39;;;;;;;21.08;3.92;;;;;;;30.41;38.72;98384.25;5039776;28;20036;-84
2022/07/15 05:56:07;;;;;;;10.23;3.88;;;;;;;30.52;38.33;98390.63;5040186;28;20040;-83
2022/07/15 05:58:33;;;;;;;11.73;3.50;;;;;;;30.47;37.79;98401.66;5056434;28;20048;-82
2022/07/15 06:01:00;;;;;;;13.27;3.95;;;;;;;30.48;38.04;98403.31;5056388;28;20040;-83
2022/07/15 06:03:33;;;;;;;28.73;3.65;;;;;;;30.42;37.79;98413.47;5042146;28;20020;-82
2022/07/15 06:05:59;;;;;;;8.68;3.20;;;;;;;30.29;38.00;98414.03;5042711;28;20047;-83
2022/07/15 06:08:25;;;;;;;14.45;3.80;;;;;;;30.37;38.16;98415.44;5056042;28;20048;-81
2022/07/15 06:10:50;;;;;;;12.88;3.15;;;;;;;30.39;38.46;98435.25;5039842;28;20128;-81
2022/07/15 06:13:20;;;;;;;;;;;;;;;30.17;38.92;98427.25;5040321;28;20158;-81
2022/07/15 06:15:47;;;;;;;9.63;3.10;;;;;;;30.23;38.86;98426.16;5039320;28;19923;-81
2022/07/15 06:18:19;;;;;;;16.60;4.50;;;;;;;29.83;40.09;98427.69;5061718;28;20040;-83
2022/07/15 06:20:45;;;;;;;12.40;4.25;;;;;;;29.41;42.30;98425.84;5066089;28;20040;-83
2022/07/15 06:23:13;;;;;;;10.32;4.10;;;;;;;29.19;43.37;98417.72;5059529;28;20392;-82
2022/07/15 06:25:39;;;;;;;24.60;4.50;;;;;;;29.26;42.50;98434.84;5076539;28;20058;-83
2022/07/15 06:28:05;;;;;;;15.38;4.57;;;;;;;29.22;41.93;98436.44;5093793;28;20510;-81
2022/07/15 06:30:31;;;;;;;13.43;3.50;;;;;;;29.51;40.76;98431.38;5076339;28;20464;-82
2022/07/15 06:32:58;;;;;;;10.10;3.90;;;;;;;29.94;40.70;98439.53;5095924;28;20040;-83
2022/07/15 06:35:26;;;;;;;13.05;4.15;;;;;;;29.70;42.44;98439.19;5056194;28;20515;-82
2022/07/15 06:37:52;;;;;;;27.33;5.20;;;;;;;29.65;43.70;98459.28;5056561;28;20052;-83
2022/07/15 06:40:18;;;;;;;12.80;4.22;;;;;;;29.57;44.83;98453.44;5023975;28;20044;-83
2022/07/15 06:42:44;;;;;;;20.35;4.65;;;;;;;29.28;44.79;98440.88;5039281;28;20090;-84
2022/07/15 06:45:14;;;;;;;12.45;4.45;;;;;;;29.09;44.73;98461.69;5039846;28;20095;-82
2022/07/15 06:47:41;;;;;;;12.27;5.05;;;;;;;28.84;45.83;98459.53;5039039;28;20033;-81
2022/07/15 06:50:07;;;;;;;16.75;4.65;;;;;;;28.68;46.29;98461.34;5055373;28;20127;-82
2022/07/15 06:52:33;;;;;;;16.63;4.57;;;;;;;28.59;46.17;98465.66;5058248;28;20150;-82
2022/07/15 06:54:59;;;;;;;15.80;4.75;;;;;;;28.64;46.82;98446.44;5074996;28;20561;-81
2022/07/15 06:57:25;;;;;;;11.38;4.22;;;;;;;28.82;46.13;98447.16;5093658;28;20078;-81
2022/07/15 06:59:54;;;;;;;9.52;4.30;;;;;;;29.25;44.76;98438.66;5075482;28;20058;-83
2022/07/15 07:02:22;;;;;;;16.88;4.20;;;;;;;29.66;43.60;98441.66;5075497;28;20047;-80
2022/07/15 07:04:48;;;;;;;15.52;4.53;;;;;;;30.05;43.48;98424.69;5058987;28;20066;-85
2022/07/15 07:07:14;;;;;;;15.02;3.90;;;;;;;30.43;41.81;98425.38;5055290;28;20484;-87
2022/07/15 07:09:40;;;;;;;15.15;4.60;;;;;;;30.55;42.19;98444.41;5055693;28;20037;-84
2022/07/15 07:12:06;;;;;;;10.32;3.30;;;;;;;30.23;39.69;98448.19;5038311;28;20036;-88
2022/07/15 07:14:32;;;;;;;9.05;3.35;;;;;;;30.11;40.57;98433.81;5059738;28;20043;-93
2022/07/15 07:16:59;;;;;;;12.18;3.50;;;;;;;30.68;40.54;98432.81;5034993;28;20495;-93
2022/07/15 07:19:25;;;;;;;8.55;3.47;;;;;;;30.89;39.30;98406.91;5048032;23;20065;-91
2022/07/15 07:21:53;;;;;;;9.05;3.70;;;;;;;31.45;38.95;98419.78;4993917;28;20567;-93
2022/07/15 07:24:19;;;;;;;11.15;3.25;;;;;;;31.57;36.42;98428.56;4995332;28;20140;-82
2022/07/15 07:26:45;;;;;;;9.00;3.20;;;;;;;31.57;37.38;98420.28;5013825;28;20082;-89
2022/07/15 07:29:12;;;;;;;17.80;3.60;;;;;;;31.92;36.99;98416.53;4998143;28;20047;-93
2022/07/15 07:31:38;;;;;;;5.85;3.00;;;;;;;32.33;36.13;98421.00;5011032;28;20042;-86
2022/07/15 07:34:04;;;;;;;14.07;3.30;;;;;;;32.62;35.88;98421.09;4978103;28;20038;-86
2022/07/15 07:36:30;;;;;;;9.27;2.83;;;;;;;32.82;35.10;98411.78;4981889;28;20060;-83
2022/07/15 07:38:56;;;;;;;7.22;2.72;;;;;;;33.07;34.25;98422.66;4961381;28;20418;-88
2022/07/15 07:41:22;;;;;;;12.05;3.13;;;;;;;33.10;34.66;98397.16;4993368;28;20085;-88
2022/07/15 07:43:48;;;;;;;6.00;2.72;;;;;;;33.53;33.36;98408.31;4993544;28;20051;-85
2022/07/15 07:46:16;;;;;;;8.82;3.15;;;;;;;33.74;33.01;98408.03;4979067;28;20133;-83
2022/07/15 07:48:42;;;;;;;7.40;3.00;;;;;;;33.60;33.08;98389.38;4978094;28;20042;-85
2022/07/15 07:51:09;;;;;;;10.70;3.50;;;;;;;33.69;33.13;98402.56;4960296;28;20068;-87
2022/07/15 07:53:34;;;;;;;7.93;2.80;;;;;;;33.75;33.22;98399.44;4976222;28;20045;-87
2022/07/15 07:56:01;;;;;;;9.18;3.13;;;;;;;33.84;32.92;98405.16;4976179;28;20043;-86
2022/07/15 07:58:26;;;;;;;10.45;2.80;;;;;;;34.21;32.83;98392.47;4976143;28;20116;-87
2022/07/15 08:00:52;;;;;;;9.07;2.88;;;;;;;34.29;32.43;98386.22;4977820;28;20051;-88
2022/07/15 08:03:18;;;;;;;6.93;2.72;;;;;;;34.10;32.63;98379.88;4976457;28;20038;-85
2022/07/15 08:05:45;;;;;;;12.25;3.28;;;;;;;33.86;32.69;98389.06;4976373;28;20042;-86
2022/07/15 08:08:16;;;;;;;10.65;3.10;;;;;;;33.75;32.82;98382.81;4959760;28;20525;-86
2022/07/15 08:10:48;;;;;;;11.50;2.78;;;;;;;33.69;33.42;98377.63;4960558;28;20046;-85
2022/07/15 08:13:16;;;;;;;7.43;3.10;;;;;;;33.70;33.14;98380.13;4980442;28;20047;-88
2022/07/15 08:15:43;;;;;;;20.80;3.10;;;;;;;33.55;33.42;98364.53;4976482;28;20054;-87
2022/07/15 08:18:13;;;;;;;8.35;3.03;;;;;;;33.54;33.63;98362.84;4979929;28;20022;-90
2022/07/15 08:20:39;;;;;;;8.57;2.80;;;;;;;33.41;34.34;98362.75;4983917;28;20494;-85
2022/07/15 08:23:06;;;;;;;12.38;3.42;;;;;;;32.97;35.10;98372.91;4977309;28;20184;-79
2022/07/15 08:25:33;;;;;;;8.40;2.70;;;;;;;32.31;35.71;98382.59;4975590;28;20109;-77
2022/07/15 08:28:00;;;;;;;14.07;3.30;;;;;;;31.99;36.69;98396.88;4975503;28;20458;-80
2022/07/15 08:30:28;;;;;;;11.40;3.22;;;;;;;32.11;36.68;98394.59;4974961;28;20043;-77
2022/07/15 08:32:54;;;;;;;17.55;3.03;;;;;;;32.14;36.79;98399.56;4968688;28;20051;-78
2022/07/15 08:35:21;;;;;;;20.35;3.75;;;;;;;31.98;37.85;98386.13;4991833;28;20073;-77
2022/07/15 08:37:47;;;;;;;11.70;3.58;;;;;;;31.38;38.86;98372.31;4975675;28;20468;-79
2022/07/15 08:40:15;;;;;;;18.65;3.80;;;;;;;30.99;40.09;98389.47;4975552;28;20057;-78
2022/07/15 08:42:43;;;;;;;14.02;3.88;;;;;;;30.59;40.82;98385.66;4975536;28;20042;-78
2022/07/15 08:45:10;;;;;;;;;;;;;;;30.59;41.09;98393.09;4976842;28;20073;-78
2022/07/15 08:47:38;;;;;;;15.77;3.72;;;;;;;30.40;41.11;98403.84;4975292;28;19930;-78
2022/07/15 08:50:05;;;;;;;15.52;3.50;;;;;;;30.27;41.79;98388.66;4943166;28;20050;-79
2022/07/15 08:52:33;;;;;;;22.10;4.53;;;;;;;29.96;42.53;98396.84;4976800;28;20049;-80
2022/07/15 08:55:00;;;;;;;18.60;4.30;;;;;;;29.88;42.71;98407.59;4977936;28;20125;-80
2022/07/15 08:57:26;;;;;;;15.55;3.92;;;;;;;29.50;43.88;98409.63;4976255;28;20050;-78
2022/07/15 08:59:52;;;;;;;16.05;3.97;;;;;;;29.19;45.01;98401.22;4974714;28;20042;-78
2022/07/15 09:02:21;;;;;;;16.23;4.25;;;;;;;29.23;45.44;98418.84;4974814;28;20054;-78
2022/07/15 09:05:36;;;;;;;20.33;3.90;;;;;;;29.05;46.48;98422.03;4976330;28;20530;-79
2022/07/15 09:08:15;;;;;;;10.23;3.25;;;;;;;28.79;45.94;98427.31;4946538;28;20051;-80
2022/07/15 09:10:41;;;;;;;11.77;3.67;;;;;;;28.57;46.34;98437.59;4959160;28;20054;-79
2022/07/15 09:13:08;;;;;;;17.75;3.90;;;;;;;28.31;47.01;98444.72;4959313;28;20067;-80
2022/07/15 09:15:36;;;;;;;16.85;4.00;;;;;;;28.06;48.19;98426.09;4959177;28;20054;-79
2022/07/15 09:18:14;;;;;;;12.48;3.75;;;;;;;27.93;48.46;98442.97;4958907;28;20121;-78
2022/07/15 09:20:41;;;;;;;;;;;;;;;27.76;49.84;98448.53;4958578;28;20081;-78
2022/07/15 09:23:09;;;;;;;17.45;3.95;;;;;;;27.63;49.94;98413.19;4990712;28;19965;-77
2022/07/15 09:25:36;;;;;;;;;;;;;;;27.64;50.29;98404.69;4976741;28;20047;-78
2022/07/15 09:28:08;;;;;;;10.95;3.63;;;;;;;27.63;50.40;98415.94;4975634;28;19921;-79
2022/07/15 09:36:21;;;;;;;9.55;4.18;;;;;;;27.35;50.65;98437.81;4975548;28;20043;-78
2022/07/15 09:38:53;;;;;;;11.48;3.90;;;;;;;27.34;51.61;98463.63;4990872;28;20153;-80
2022/07/15 09:41:25;;;;;;;14.77;4.18;;;;;;;27.13;52.31;98438.88;4974418;28;20055;-78
2022/07/15 09:44:06;;;;;;;15.63;3.90;;;;;;;27.04;52.58;98449.41;4974315;28;20053;-78
2022/07/15 09:46:47;;;;;;;17.50;4.45;;;;;;;27.05;53.30;98453.81;4958536;28;20069;-78
2022/07/15 09:49:21;;;;;;;20.40;4.45;;;;;;;27.00;53.41;98457.28;4988949;28;20042;-78
2022/07/15 09:51:50;;;;;;;12.10;3.88;;;;;;;26.69;55.08;98464.22;4942112;28;20142;-77
2022/07/15 09:54:17;;;;;;;14.77;4.40;;;;;;;26.74;54.96;98475.28;4975262;28;20086;-78
2022/07/15 09:56:45;;;;;;;15.55;4.15;;;;;;;26.71;55.32;98466.72;4973457;28;20039;-79
2022/07/15 09:59:11;;;;;;;13.20;4.47;;;;;;;26.66;55.28;98464.69;4975318;28;20141;-79
2022/07/15 10:01:37;;;;;;;13.75;4.18;;;;;;;26.68;56.04;98469.94;4957211;28;20154;-79
2022/07/15 10:04:04;;;;;;;18.17;4.15;;;;;;;26.89;55.88;98488.38;4958026;28;20054;-78
2022/07/15 10:06:32;;;;;;;11.27;3.97;;;;;;;27.05;55.71;98494.97;4973857;28;20081;-79
2022/07/15 10:08:58;;;;;;;23.55;4.45;;;;;;;27.09;55.57;98482.41;4973304;28;20050;-80
2022/07/15 10:11:24;;;;;;;13.38;3.90;;;;;;;27.00;56.28;98492.13;4973445;28;20043;-78
2022/07/15 10:14:11;;;;;;;21.98;4.60;;;;;;;27.42;56.07;98472.47;4989722;28;20531;-78
2022/07/15 10:17:05;;;;;;;20.23;4.47;;;;;;;28.71;52.56;98460.81;4957538;28;20097;-80
2022/07/15 10:19:48;;;;;;;11.90;4.25;;;;;;;29.08;52.26;98449.03;4973098;28;20473;-77
2022/07/15 10:22:55;;;;;;;13.30;3.78;;;;;;;29.66;51.19;98436.16;4973256;28;20482;-78
2022/07/15 10:25:39;;;;;;;9.93;3.60;;;;;;;30.17;47.98;98433.59;4957701;28;20632;-80
2022/07/15 10:28:22;;;;;;;9.07;3.15;;;;;;;30.68;47.79;98439.16;4957714;28;20174;-78
2022/07/15 10:31:13;;;;;;;11.30;2.88;;;;;;;31.44;44.83;98442.97;4973584;28;20108;-78
2022/07/15 10:33:39;;;;;;;6.80;2.92;;;;;;;31.73;44.32;98442.31;4957637;28;20133;-91
2022/07/15 10:36:06;;;;;;;8.77;3.00;;;;;;;32.85;41.70;98438.88;4973687;28;20046;-82
2022/07/15 10:38:41;;;;;;;8.23;2.92;;;;;;;32.98;37.62;98418.84;4973468;28;20065;-82
2022/07/15 10:41:20;;;;;;;8.35;2.65;;;;;;;32.88;38.84;98422.53;4957744;28;20116;-83
2022/07/15 10:43:50;;;;;;;7.80;2.65;;;;;;;33.16;38.03;98422.81;4973751;28;20051;-80
2022/07/15 10:46:25;;;;;;;10.20;2.40;;;;;;;34.09;36.99;98437.28;4973473;28;20094;-84
2022/07/15 10:49:00;;;;;;;9.15;2.50;;;;;;;34.58;35.14;98454.63;4989484;28;20073;-84
2022/07/15 10:51:35;;;;;;;8.07;3.30;;;;;;;34.83;34.84;98462.56;4964687;28;20595;-82
2022/07/15 10:54:04;;;;;;;14.43;2.60;;;;;;;35.30;34.01;98446.72;4974928;28;20077;-81
2022/07/15 10:56:35;;;;;;;12.63;3.45;;;;;;;34.83;34.12;98451.44;4957638;28;20046;-83
2022/07/15 10:59:15;;;;;;;13.50;3.13;;;;;;;34.00;36.13;98462.09;4956303;28;20097;-81
2022/07/15 11:01:47;;;;;;;8.75;2.70;;;;;;;32.69;37.90;98459.50;4988879;28;20054;-83
2022/07/15 11:04:21;;;;;;;8.05;2.67;;;;;;;32.25;39.29;98472.22;4940988;28;20085;-83
2022/07/15 11:07:07;;;;;;;9.70;2.80;;;;;;;32.42;39.04;98474.63;4956998;28;20450;-82
2022/07/15 11:09:54;;;;;;;10.25;2.63;;;;;;;32.84;38.77;98468.50;4940264;28;20141;-82
2022/07/15 11:12:29;;;;;;;7.40;2.78;;;;;;;33.26;37.40;98469.00;4973246;28;20065;-83
2022/07/15 11:15:00;;;;;;;8.35;2.63;;;;;;;33.53;37.14;98472.03;4974342;28;20105;-86
2022/07/15 11:17:29;;;;;;;9.57;2.90;;;;;;;33.15;37.33;98489.59;4957192;28;20095;-84
2022/07/15 11:20:08;;;;;;;6.38;2.67;;;;;;;33.00;35.92;98488.59;4973099;28;20476;-84
2022/07/15 11:22:36;;;;;;;7.38;2.30;;;;;;;32.83;36.39;98471.56;4956799;28;20047;-84
2022/07/15 11:25:03;;;;;;;;;;;;;;;32.96;36.47;98481.19;4956777;28;20422;-84
2022/07/15 11:27:30;;;;;;;7.53;2.55;;;;;;;32.34;37.05;98487.06;4988946;28;19922;-85
2022/07/15 11:30:01;;;;;;;9.50;2.20;;;;;;;32.03;37.16;98480.91;4956409;28;20138;-83
2022/07/15 11:32:36;;;;;;;6.97;1.98;;;;;;;31.90;37.38;98470.47;4974019;28;20121;-83
2022/07/15 11:35:03;;;;;;;8.02;2.45;;;;;;;31.53;38.18;98460.63;4989319;28;20050;-83
2022/07/15 11:37:35;;;;;;;5.60;2.28;;;;;;;31.14;39.40;98461.25;4972747;28;20050;-85
2022/07/15 11:45:56;;;;;;;8.13;2.55;;;;;;;30.30;41.49;98420.38;4934762;28;20066;-84
2022/07/15 11:48:22;;;;;;;5.65;2.30;;;;;;;30.28;41.92;98422.56;4989102;28;20521;-84
2022/07/15 11:50:57;;;;;;;7.07;2.22;;;;;;;30.33;40.70;98414.31;4966365;28;20034;-84
2022/07/15 11:53:24;;;;;;;7.25;2.35;;;;;;;30.44;40.94;98424.25;4962297;28;20417;-83